Idre Storbo, Sweden

8:01 PM CET on February 10, 2016 (GMT +0100)
Tjonnodden, 2446 Elga, Engedal, Norway | | Change Station
CLOSE
Current Station
Personal Weather Station
Location: Hedmark, HEDMARK
Elevation: 2218 ft
Nearby Weather Stations

Elev 2218 ft 62.16 °N, 11.90 °E | Updated 9 seconds ago

Mostly Cloudy
Mostly Cloudy
27.3 °F
Feels Like 27 °F
N
2.9
Wind Variable Wind from NNW
Gusts 4.9 mph

Today
High -- | Low -- °F
--% Chance of Precip.
Yesterday
High -- | Low -- °F
Precip. -- in
Pressure 29.18 in
Visibility 6.2 miles
Clouds Few 800 ft
Scattered Clouds 1700 ft
Mostly Cloudy 2200 ft
Windchill 27 °F
Dew Point 19 °F
Humidity 72%
Rainfall 0.00 in
Snow Depth Not available.
8:12 AM 4:38 PM
Waxing Crescent, 6% visible
METAR ENRO 101850Z 34014KT 9999 FEW008 SCT017 BKN022 M03/M05 Q0988
Pressure 29.18 in
Visibility 6.2 miles
Clouds Few 800 ft
Scattered Clouds 1700 ft
Mostly Cloudy 2200 ft
Windchill 27 °F
Dew Point 19 °F
Humidity 72%
Rainfall 0.00 in
Snow Depth Not available.
8:12 AM 4:38 PM
Waxing Crescent, 6% visible
METAR ENRO 101850Z 34014KT 9999 FEW008 SCT017 BKN022 M03/M05 Q0988

10-Day Weather Forecast

Almanac

Astronomy

Feb. 10, 2016 Rise Set
Actual Time
Civil Twilight
Nautical Twilight
Astronomical Twilight
Moon
Length of Visible Light
Length of Day
Tomorrow will be .
, % of the Moon is Illuminated

Today's Extremes

Country Highs Country Lows

Community

WunderPhotos

Upload Photos

1,891,921 photos uploaded!

WunderBlog® & News

Nearby

Air Quality

  Air Quality AQ Index Pollutant
Not available.

Snow Depth

Station Depth Elevation

Earthquake Activity

City Distance Mag. Time & Date
Minimum magnitude displayed is 2.5.

Coastal Water Temperatures

Place Temperature

Stations

Nearby Weather Stations

Station Location Temp. Windchill Dew Point Humidity Wind Precip. Elev Updated Type